Aynor, SC (29511)

8:33 PM EST on January 29, 2015 (GMT -0500)
Cool Springs, SC | Change Station
CLOSE
Current Station
Personal Weather Station
Location: Aynor, SC
Elevation: 85 ft
Nearby Weather Stations

Elev 85 ft 33.98 °N, 79.13 °W | Updated 2 seconds ago

Overcast
Overcast
45.3 °F
Feels Like 45 °F
N
0.0
Wind Variable Wind from North
Gusts 0.0 mph

Today
High -- | Low -- °F
--% Chance of Precip.
Yesterday
High -- | Low -- °F
Precip. -- in
7:15 AM 5:44 PM
Waxing Gibbous, 78% visible
Pressure 30.16 in
Visibility 7.0 miles
Clouds Mostly Cloudy 11000 ft
Windchill 45 °F
Dew Point 40 °F
Humidity 80%
Rainfall 0.00 in
Snow Depth Not available.
UV 0 out of 12
Pollen 2.10 out of 12
Air Quality Not available.
Flu Activity Not available.
METAR KHYW 300115Z AUTO 18004KT 7SM BKN110 08/03 A3016 RMK AO2

More Conditions Fewer Conditions

Pressure 30.16 in
Visibility 7.0 miles
Clouds Mostly Cloudy 11000 ft
Windchill 45 °F
Dew Point 40 °F
Humidity 80%
Rainfall 0.00 in
Snow Depth Not available.
UV 0 out of 12
Pollen 2.10 out of 12
Air Quality Not available.
Flu Activity Not available.
METAR KHYW 300115Z AUTO 18004KT 7SM BKN110 08/03 A3016 RMK AO2

More Conditions Fewer Conditions

10-Day Weather Forecast

Almanac

Astronomy

Jan. 29, 2015 Rise Set
Actual Time
Civil Twilight
Nautical Twilight
Astronomical Twilight
Moon
Length of Visible Light
Length of Day
Tomorrow will be .
, % of the Moon is Illuminated

Today's Extremes

State Highs State Lows

Community

WunderPhotos

Upload Photos

1,791,668 photos uploaded!

WunderBlogs® & News

Nearby

Air Quality

  Air Quality AQ Index Pollutant
Not available.

Snow Depth

Station Depth Elevation

Earthquake Activity

City Distance Mag. Time & Date
Minimum magnitude displayed is 2.5.

Coastal Water Temperatures

Place Temperature

Nearby Weather Stations